Landrienne, Canada
Current Conditions -  °F | °C
As of 6:00 PM on Wednesday 26 Nov 2014 (Local Time) from CYVO Reporting Station
Few Clouds Few Clouds  
Wind Chill: 10°   Ceiling: Unl
Heat Index: 10°   Visibility: 15mi
Dew Point:   Wind: 0mph
Humidity: 92%   Direction: NA
Pressure: 30.21"   Gusts: NA
Location:  48.55°N, 77.95°W
Report Text: CYVO 262300Z 00000KT 15SM FEW025 FEW120 M12/M13 A3021 RMK SC1AC1 SC TR SLP260
Loading
Personal Weather Stations






























Interactive Weather Map New forecast layout! Learn more

10-Day Weather Forecast

Advertisements
Track Severe Weather on mobile